createdAt,value
2022-12-19T00:01:38.679Z,48.60
2022-12-19T00:04:09.054Z,48.60
2022-12-19T00:06:37.741Z,48.60
2022-12-19T00:09:05.513Z,48.60
2022-12-19T00:11:33.803Z,48.60
2022-12-19T00:14:01.069Z,48.70
2022-12-19T00:16:29.611Z,48.80
2022-12-19T00:18:58.426Z,48.80
2022-12-19T00:21:30.972Z,48.70
2022-12-19T00:24:01.099Z,48.70
2022-12-19T00:26:30.779Z,48.70
2022-12-19T00:29:13.910Z,48.80
2022-12-19T00:31:41.076Z,48.80
2022-12-19T00:34:09.021Z,48.80
2022-12-19T00:36:35.760Z,48.90
2022-12-19T00:39:07.747Z,48.90
2022-12-19T00:41:37.486Z,49.00
2022-12-19T00:44:07.869Z,49.10
2022-12-19T00:46:35.235Z,49.10
2022-12-19T00:49:03.104Z,49.00
2022-12-19T00:51:33.188Z,49.10
2022-12-19T00:54:01.276Z,49.10
2022-12-19T00:56:32.904Z,49.10
2022-12-19T00:59:06.293Z,49.10
2022-12-19T01:01:36.552Z,49.20
2022-12-19T01:04:27.674Z,49.20
2022-12-19T01:06:52.374Z,49.30
2022-12-19T01:09:21.663Z,49.30
2022-12-19T01:12:07.929Z,49.40
2022-12-19T01:14:34.895Z,49.50
2022-12-19T01:17:01.643Z,49.60
2022-12-19T01:19:29.160Z,49.70
2022-12-19T01:21:55.926Z,49.70
2022-12-19T01:24:22.723Z,49.70
2022-12-19T01:26:49.609Z,49.80
2022-12-19T01:29:16.524Z,49.80
2022-12-19T01:31:43.453Z,49.90
2022-12-19T01:34:10.286Z,49.90
2022-12-19T01:36:40.154Z,50.00
2022-12-19T01:39:08.014Z,50.10
2022-12-19T01:41:35.576Z,50.20
2022-12-19T01:44:08.412Z,50.30
2022-12-19T01:46:48.478Z,50.30
2022-12-19T01:49:28.016Z,50.40
2022-12-19T01:51:58.682Z,50.40
2022-12-19T01:54:32.826Z,50.30
2022-12-19T01:57:01.464Z,50.30
2022-12-19T01:59:38.728Z,50.30
2022-12-19T02:02:20.192Z,50.50
2022-12-19T02:04:47.875Z,50.50
2022-12-19T02:07:17.289Z,50.50
2022-12-19T02:09:47.127Z,50.60
2022-12-19T02:12:17.809Z,50.60
2022-12-19T02:14:44.812Z,50.60
2022-12-19T02:17:23.612Z,50.60
2022-12-19T02:20:30.434Z,50.60
2022-12-19T02:23:03.507Z,50.60
2022-12-19T02:25:56.548Z,50.50
2022-12-19T02:28:36.288Z,50.60
2022-12-19T02:31:11.850Z,50.70
2022-12-19T02:34:14.066Z,50.50
2022-12-19T02:36:52.871Z,50.70
2022-12-19T02:39:33.875Z,50.50
2022-12-19T02:42:03.382Z,50.60
2022-12-19T02:44:36.668Z,50.60
2022-12-19T02:47:06.853Z,50.80
2022-12-19T02:49:37.854Z,50.80
2022-12-19T02:52:13.800Z,50.70
2022-12-19T02:54:44.866Z,50.80
2022-12-19T02:57:38.069Z,50.80
2022-12-19T03:00:21.906Z,51.10
2022-12-19T03:03:12.185Z,51.10
2022-12-19T03:05:51.561Z,51.00
2022-12-19T03:08:38.631Z,51.20
2022-12-19T03:11:09.961Z,51.10
2022-12-19T03:13:45.780Z,51.00
2022-12-19T03:16:13.750Z,51.10
2022-12-19T03:18:40.911Z,51.10
2022-12-19T03:21:28.795Z,51.10
2022-12-19T03:23:57.402Z,51.30
2022-12-19T03:26:27.679Z,51.10
2022-12-19T03:29:19.776Z,51.30
2022-12-19T03:31:47.750Z,51.40
2022-12-19T03:34:26.478Z,51.30
2022-12-19T03:36:57.075Z,51.40
2022-12-19T03:39:25.448Z,51.40
2022-12-19T03:42:13.491Z,51.30
2022-12-19T03:44:42.466Z,51.50
2022-12-19T03:47:28.317Z,51.40
2022-12-19T03:49:55.316Z,51.60
2022-12-19T03:52:38.608Z,51.50
2022-12-19T03:55:24.444Z,51.50
2022-12-19T03:57:56.574Z,51.70
2022-12-19T04:00:25.174Z,51.50
2022-12-19T04:02:54.758Z,51.50
2022-12-19T04:05:24.884Z,51.50
2022-12-19T04:07:55.536Z,51.70
2022-12-19T04:10:26.054Z,51.70
2022-12-19T04:13:23.268Z,51.70
2022-12-19T04:16:06.903Z,52.00
2022-12-19T04:18:34.938Z,51.80
2022-12-19T04:21:08.716Z,51.70
2022-12-19T04:23:41.676Z,52.20
2022-12-19T04:26:09.677Z,51.80
2022-12-19T04:28:43.990Z,51.80
2022-12-19T04:31:16.622Z,51.90
2022-12-19T04:33:43.590Z,51.90
2022-12-19T04:36:11.556Z,51.90
2022-12-19T04:38:38.804Z,52.10
2022-12-19T04:41:05.579Z,52.00
2022-12-19T04:43:32.518Z,52.10
2022-12-19T04:45:59.707Z,52.00
2022-12-19T04:48:27.028Z,52.10
2022-12-19T04:50:54.914Z,52.10
2022-12-19T04:53:21.678Z,52.20
2022-12-19T04:55:48.668Z,52.10
2022-12-19T04:58:19.030Z,52.10
2022-12-19T05:00:48.761Z,52.10
2022-12-19T05:03:15.599Z,52.20
2022-12-19T05:05:42.335Z,52.30
2022-12-19T05:08:10.471Z,52.20
2022-12-19T05:10:37.614Z,52.30
2022-12-19T05:13:04.387Z,52.30
2022-12-19T05:15:31.118Z,52.30
2022-12-19T05:17:57.860Z,52.30
2022-12-19T05:20:24.708Z,52.30
2022-12-19T05:22:51.683Z,52.30
2022-12-19T05:25:18.391Z,52.30
2022-12-19T05:27:45.361Z,52.40
2022-12-19T05:30:12.400Z,52.50
2022-12-19T05:32:39.315Z,52.40
2022-12-19T05:35:06.554Z,52.50
2022-12-19T05:37:35.244Z,52.50
2022-12-19T05:40:03.153Z,52.50
2022-12-19T05:42:29.891Z,52.50
2022-12-19T05:44:56.862Z,52.50
2022-12-19T05:47:23.617Z,52.50
2022-12-19T05:49:50.644Z,52.60
2022-12-19T05:52:17.328Z,52.60
2022-12-19T05:54:44.075Z,52.60
2022-12-19T05:57:11.148Z,52.60
2022-12-19T05:59:38.029Z,52.70
2022-12-19T06:02:05.027Z,52.70
2022-12-19T06:04:32.030Z,52.70
2022-12-19T06:06:58.964Z,52.80
2022-12-19T06:09:26.231Z,53.00
2022-12-19T06:11:53.038Z,52.90
2022-12-19T06:14:20.195Z,53.00
2022-12-19T06:16:47.027Z,52.90
2022-12-19T06:19:14.514Z,53.00
2022-12-19T06:21:47.924Z,53.00
2022-12-19T06:24:15.586Z,52.90
2022-12-19T06:26:42.609Z,53.00
2022-12-19T06:29:10.406Z,53.00
2022-12-19T06:31:37.828Z,53.00
2022-12-19T06:34:04.614Z,53.10
2022-12-19T06:36:31.628Z,53.10
2022-12-19T06:38:58.994Z,53.10
2022-12-19T06:41:44.896Z,53.10
2022-12-19T06:44:14.336Z,53.10
2022-12-19T06:46:42.123Z,53.30
2022-12-19T06:49:11.212Z,53.20
2022-12-19T06:51:37.997Z,53.20
2022-12-19T06:54:05.373Z,53.30
2022-12-19T06:56:40.789Z,53.40
2022-12-19T06:59:11.176Z,53.60
2022-12-19T07:02:28.546Z,53.50
2022-12-19T07:05:02.553Z,53.80
2022-12-19T07:07:30.262Z,53.60
2022-12-19T07:09:57.053Z,53.50
2022-12-19T07:12:23.753Z,53.50
2022-12-19T07:14:53.523Z,53.50
2022-12-19T07:17:22.080Z,53.50
2022-12-19T07:19:51.689Z,53.60
2022-12-19T07:22:18.584Z,53.60
2022-12-19T07:24:45.588Z,53.50
2022-12-19T07:27:12.800Z,53.50
2022-12-19T07:29:39.668Z,53.50
2022-12-19T07:32:06.494Z,53.70
2022-12-19T07:34:33.349Z,53.70
2022-12-19T07:37:00.110Z,53.70
2022-12-19T07:39:27.252Z,53.70
2022-12-19T07:41:53.981Z,53.60
2022-12-19T07:44:30.978Z,53.70
2022-12-19T07:46:57.743Z,53.70
2022-12-19T07:49:24.692Z,53.80
2022-12-19T07:51:51.452Z,53.80
2022-12-19T07:54:18.422Z,53.80
2022-12-19T07:56:45.139Z,53.80
2022-12-19T07:59:13.093Z,53.70
2022-12-19T08:01:40.021Z,53.70
2022-12-19T08:04:06.920Z,53.70
2022-12-19T08:06:39.132Z,53.70
2022-12-19T08:09:08.198Z,53.70
2022-12-19T08:11:35.013Z,53.80
2022-12-19T08:14:01.891Z,53.90
2022-12-19T08:16:28.903Z,53.90
2022-12-19T08:18:56.222Z,53.80
2022-12-19T08:21:23.792Z,53.80
2022-12-19T08:23:51.996Z,53.80
2022-12-19T08:26:25.024Z,53.90
2022-12-19T08:28:53.712Z,54.00
2022-12-19T08:31:21.730Z,54.00
2022-12-19T08:33:49.277Z,54.10
2022-12-19T08:36:18.925Z,54.00
2022-12-19T08:38:46.823Z,54.00
2022-12-19T08:41:14.502Z,54.00
2022-12-19T08:43:41.716Z,54.00
2022-12-19T08:46:09.582Z,54.10
2022-12-19T08:48:36.833Z,54.10
2022-12-19T08:51:06.371Z,54.10
2022-12-19T08:53:36.727Z,54.10
2022-12-19T08:56:12.593Z,54.10
2022-12-19T08:58:39.586Z,54.10
2022-12-19T09:01:09.243Z,54.10
2022-12-19T09:03:44.065Z,54.10
2022-12-19T09:06:23.765Z,54.10
2022-12-19T09:08:50.616Z,54.20
2022-12-19T09:11:20.622Z,54.20
2022-12-19T09:13:48.118Z,54.40
2022-12-19T09:16:16.608Z,54.40
2022-12-19T09:18:48.988Z,54.30
2022-12-19T09:21:16.959Z,54.50
2022-12-19T09:23:47.644Z,54.40
2022-12-19T09:26:15.648Z,54.30
2022-12-19T09:28:42.772Z,54.30
2022-12-19T09:31:17.746Z,54.40
2022-12-19T09:33:45.298Z,54.50
2022-12-19T09:36:18.869Z,54.50
2022-12-19T09:38:46.080Z,54.50
2022-12-19T09:41:18.957Z,54.50
2022-12-19T09:44:06.983Z,54.60
2022-12-19T09:46:49.701Z,54.60
2022-12-19T09:49:29.189Z,54.70
2022-12-19T09:52:10.770Z,54.60
2022-12-19T09:54:48.417Z,54.60
2022-12-19T09:57:28.611Z,54.50
2022-12-19T10:00:00.222Z,54.70
2022-12-19T10:03:14.243Z,54.60
2022-12-19T10:06:08.527Z,55.20
2022-12-19T10:09:09.994Z,54.70
2022-12-19T10:12:44.383Z,54.60
2022-12-19T10:14:51.238Z,54.80
2022-12-19T10:17:52.140Z,54.90
2022-12-19T10:20:28.267Z,54.90
2022-12-19T10:23:16.915Z,54.70
2022-12-19T10:25:52.482Z,55.10
2022-12-19T10:28:32.883Z,54.90
2022-12-19T10:31:21.543Z,55.10
2022-12-19T10:34:02.401Z,55.00
2022-12-19T10:37:12.549Z,55.00
2022-12-19T10:39:58.850Z,55.30
2022-12-19T10:42:51.032Z,54.90
2022-12-19T10:45:20.413Z,55.00
2022-12-19T10:47:49.718Z,54.90
2022-12-19T10:50:23.704Z,55.30
2022-12-19T10:53:04.029Z,55.10
2022-12-19T10:55:44.485Z,55.10
2022-12-19T10:58:22.445Z,55.20
2022-12-19T11:01:05.248Z,55.30
2022-12-19T11:03:34.145Z,55.30
2022-12-19T11:06:02.731Z,55.20
2022-12-19T11:08:37.287Z,55.20
2022-12-19T11:14:27.504Z,55.30
2022-12-19T11:21:21.975Z,55.20
2022-12-19T11:22:20.643Z,55.30
2022-12-19T11:29:30.351Z,55.50
2022-12-19T11:29:33.928Z,55.30
2022-12-19T11:30:36.477Z,55.30
2022-12-19T11:30:41.251Z,55.30
2022-12-19T11:32:32.088Z,55.80
2022-12-19T11:34:23.647Z,55.50
2022-12-19T11:37:09.621Z,55.40
2022-12-19T11:39:40.663Z,55.50
2022-12-19T11:43:04.384Z,55.50
2022-12-19T11:45:51.283Z,55.90
2022-12-19T11:48:36.245Z,55.60
2022-12-19T11:51:09.921Z,55.50
2022-12-19T11:53:49.697Z,55.50
2022-12-19T11:56:20.582Z,55.50
2022-12-19T11:58:55.623Z,55.40
2022-12-19T12:01:44.140Z,55.50
2022-12-19T12:04:36.976Z,55.40
2022-12-19T12:07:20.136Z,55.50
2022-12-19T12:14:27.935Z,55.50
2022-12-19T12:24:55.205Z,55.40
2022-12-19T12:30:27.189Z,55.70
2022-12-19T12:31:00.295Z,55.50
2022-12-19T12:31:11.835Z,55.60
2022-12-19T12:31:47.165Z,55.70
2022-12-19T12:31:50.782Z,55.50
2022-12-19T12:35:28.863Z,55.70
2022-12-19T12:38:26.918Z,55.70
2022-12-19T12:41:19.294Z,55.50
2022-12-19T12:44:09.260Z,55.80
2022-12-19T12:46:46.092Z,55.80
2022-12-19T12:49:33.609Z,55.60
2022-12-19T12:52:02.713Z,55.60
2022-12-19T12:54:35.421Z,55.40
2022-12-19T12:57:03.563Z,55.50
2022-12-19T12:59:31.426Z,55.50
2022-12-19T13:02:27.968Z,55.50
2022-12-19T13:05:00.985Z,55.90
2022-12-19T13:07:54.875Z,55.60
2022-12-19T13:10:30.696Z,55.80
2022-12-19T13:13:14.143Z,55.50
2022-12-19T13:15:45.779Z,55.50
2022-12-19T13:18:30.252Z,55.40
2022-12-19T13:20:58.292Z,55.40
2022-12-19T13:23:37.279Z,55.40
2022-12-19T13:26:04.375Z,55.60
2022-12-19T13:28:31.077Z,55.50
2022-12-19T13:31:22.432Z,55.60
2022-12-19T13:33:55.117Z,55.70
2022-12-19T13:39:54.511Z,55.50
2022-12-19T13:40:08.868Z,55.70
2022-12-19T13:43:09.561Z,55.90
2022-12-19T13:45:41.382Z,55.40
2022-12-19T13:48:16.734Z,55.50
2022-12-19T13:50:47.621Z,55.60
2022-12-19T13:53:18.199Z,55.50
2022-12-19T13:55:44.912Z,55.50
2022-12-19T13:58:31.253Z,55.50
2022-12-19T14:01:03.031Z,55.70
2022-12-19T14:03:38.744Z,55.50
2022-12-19T14:06:24.038Z,55.50
2022-12-19T14:09:46.234Z,55.50
2022-12-19T14:12:23.759Z,55.30
2022-12-19T14:15:02.174Z,55.30
2022-12-19T14:17:37.033Z,55.30
2022-12-19T14:22:01.715Z,55.30
2022-12-19T14:23:04.633Z,55.90
2022-12-19T14:28:17.528Z,55.40
2022-12-19T14:28:41.930Z,55.60
2022-12-19T14:31:14.043Z,55.70
2022-12-19T14:36:40.494Z,55.60
2022-12-19T14:39:23.727Z,55.60
2022-12-19T14:42:20.211Z,55.40
2022-12-19T14:53:17.580Z,55.40
2022-12-19T14:54:05.397Z,55.60
2022-12-19T14:54:22.463Z,55.50
2022-12-19T14:57:50.635Z,55.40
2022-12-19T15:01:10.993Z,55.40
2022-12-19T15:03:34.263Z,55.80
2022-12-19T15:07:05.202Z,55.70
2022-12-19T15:11:00.282Z,55.70
2022-12-19T15:14:47.041Z,55.50
2022-12-19T15:15:36.237Z,55.60
2022-12-19T15:18:16.034Z,55.50
2022-12-19T15:20:43.215Z,55.50
2022-12-19T15:23:10.035Z,55.40
2022-12-19T15:26:02.887Z,55.50
2022-12-19T15:28:36.282Z,55.50
2022-12-19T15:31:10.578Z,55.60
2022-12-19T15:33:44.088Z,55.60
2022-12-19T15:36:24.266Z,55.60
2022-12-19T15:38:50.973Z,55.60
2022-12-19T15:41:22.877Z,55.60
2022-12-19T15:44:07.518Z,55.80
2022-12-19T15:46:34.601Z,55.80
2022-12-19T15:49:02.492Z,55.80
2022-12-19T15:51:29.213Z,56.40
2022-12-19T15:54:08.952Z,56.00
2022-12-19T15:56:40.611Z,56.30
2022-12-19T15:59:20.791Z,56.30
2022-12-19T16:01:48.051Z,56.30
2022-12-19T16:04:15.526Z,56.00
2022-12-19T16:06:42.548Z,56.10
2022-12-19T16:09:27.865Z,56.00
2022-12-19T16:11:54.966Z,56.00
2022-12-19T16:14:22.899Z,55.80
2022-12-19T16:16:54.971Z,55.80
2022-12-19T16:19:30.676Z,55.80
2022-12-19T16:21:58.248Z,55.90
2022-12-19T16:24:25.689Z,55.80
2022-12-19T16:26:58.468Z,55.80
2022-12-19T16:29:28.199Z,55.90
2022-12-19T16:31:55.666Z,55.90
2022-12-19T16:34:24.293Z,55.80
2022-12-19T16:36:51.011Z,55.90
2022-12-19T16:39:18.059Z,55.90
2022-12-19T16:41:45.729Z,56.00
2022-12-19T16:44:21.530Z,56.00
2022-12-19T16:46:51.355Z,56.10
2022-12-19T16:49:25.321Z,56.00
2022-12-19T16:51:52.338Z,56.10
2022-12-19T16:54:19.907Z,56.10
2022-12-19T16:56:53.466Z,56.10
2022-12-19T16:59:30.650Z,56.10
2022-12-19T17:01:59.848Z,56.20
2022-12-19T17:04:28.634Z,56.00
2022-12-19T17:06:55.999Z,56.00
2022-12-19T17:09:24.239Z,55.90
2022-12-19T17:11:55.819Z,56.00
2022-12-19T17:14:25.763Z,55.90
2022-12-19T17:16:55.356Z,55.90
2022-12-19T17:19:25.900Z,55.90
2022-12-19T17:21:52.958Z,55.90
2022-12-19T17:24:20.060Z,56.00
2022-12-19T17:26:47.233Z,56.00
2022-12-19T17:29:14.569Z,56.10
2022-12-19T17:31:42.076Z,56.20
2022-12-19T17:34:33.040Z,56.10
2022-12-19T17:37:02.526Z,56.50
2022-12-19T17:39:33.384Z,56.20
2022-12-19T17:42:10.619Z,56.20
2022-12-19T17:44:37.242Z,56.30
2022-12-19T17:47:04.700Z,56.30
2022-12-19T17:49:32.817Z,56.30
2022-12-19T17:52:00.178Z,56.30
2022-12-19T17:54:27.355Z,56.30
2022-12-19T17:56:55.107Z,56.40
2022-12-19T17:59:21.815Z,56.30
2022-12-19T18:01:48.963Z,56.30
2022-12-19T18:04:21.441Z,56.20
2022-12-19T18:06:49.400Z,56.10
2022-12-19T18:09:24.212Z,56.00
2022-12-19T18:11:52.830Z,55.90
2022-12-19T18:14:19.992Z,55.90
2022-12-19T18:16:47.787Z,56.00
2022-12-19T18:19:20.842Z,56.10
2022-12-19T18:21:48.006Z,56.00
2022-12-19T18:24:16.611Z,55.90
2022-12-19T18:26:44.972Z,56.00
2022-12-19T18:29:12.066Z,56.00
2022-12-19T18:31:43.459Z,56.00
2022-12-19T18:34:23.523Z,56.00
2022-12-19T18:36:51.204Z,56.10
2022-12-19T18:39:21.276Z,56.00
2022-12-19T18:41:48.648Z,56.10
2022-12-19T18:44:15.979Z,56.30
2022-12-19T18:46:42.873Z,56.30
2022-12-19T18:49:14.209Z,56.20
2022-12-19T18:51:41.180Z,56.30
2022-12-19T18:54:17.393Z,56.30
2022-12-19T18:56:44.733Z,56.50
2022-12-19T18:59:11.886Z,56.40
2022-12-19T19:01:46.367Z,56.40
2022-12-19T19:04:17.592Z,56.60
2022-12-19T19:06:51.055Z,56.70
2022-12-19T19:09:20.425Z,56.70
2022-12-19T19:11:49.759Z,57.00
2022-12-19T19:14:16.545Z,56.80
2022-12-19T19:16:43.377Z,56.60
2022-12-19T19:19:14.730Z,56.60
2022-12-19T19:21:42.604Z,56.70
2022-12-19T19:24:14.222Z,56.80
2022-12-19T19:26:40.977Z,56.90
2022-12-19T19:29:07.994Z,56.90
2022-12-19T19:31:39.676Z,57.10
2022-12-19T19:34:22.962Z,57.10
2022-12-19T19:36:54.752Z,57.20
2022-12-19T19:39:23.214Z,57.10
2022-12-19T19:41:50.136Z,57.10
2022-12-19T19:44:17.090Z,57.10
2022-12-19T19:46:44.748Z,57.10
2022-12-19T19:49:12.241Z,57.10
2022-12-19T19:51:39.335Z,57.10
2022-12-19T19:54:06.528Z,57.00
2022-12-19T19:56:33.877Z,57.00
2022-12-19T19:59:01.080Z,57.00
2022-12-19T20:01:28.183Z,57.00
2022-12-19T20:03:55.260Z,57.00
2022-12-19T20:06:22.259Z,57.10
2022-12-19T20:08:49.783Z,57.10
2022-12-19T20:11:17.201Z,57.10
2022-12-19T20:13:44.684Z,57.10
2022-12-19T20:16:15.808Z,57.20
2022-12-19T20:18:48.313Z,57.20
2022-12-19T20:21:16.197Z,57.20
2022-12-19T20:23:44.035Z,57.10
2022-12-19T20:26:13.313Z,57.10
2022-12-19T20:28:47.941Z,57.20
2022-12-19T20:31:16.428Z,57.30
2022-12-19T20:33:43.426Z,57.30
2022-12-19T20:36:12.163Z,57.30
2022-12-19T20:38:39.399Z,57.30
2022-12-19T20:41:06.510Z,57.20
2022-12-19T20:43:33.956Z,57.20
2022-12-19T20:46:07.648Z,57.20
2022-12-19T20:48:34.994Z,57.30
2022-12-19T20:51:04.655Z,57.30
2022-12-19T20:53:32.927Z,57.30
2022-12-19T20:56:02.014Z,57.20
2022-12-19T20:58:30.795Z,57.20
2022-12-19T21:01:03.622Z,57.10
2022-12-19T21:03:30.880Z,57.10
2022-12-19T21:05:58.500Z,57.00
2022-12-19T21:08:26.893Z,57.00
2022-12-19T21:10:55.086Z,57.10
2022-12-19T21:13:22.935Z,57.00
2022-12-19T21:15:57.427Z,57.00
2022-12-19T21:18:25.647Z,57.10
2022-12-19T21:20:53.211Z,57.10
2022-12-19T21:23:20.260Z,57.10
2022-12-19T21:25:47.479Z,57.10
2022-12-19T21:28:14.643Z,57.10
2022-12-19T21:30:42.319Z,57.20
2022-12-19T21:33:10.338Z,57.20
2022-12-19T21:35:38.181Z,57.20
2022-12-19T21:38:05.154Z,57.20
2022-12-19T21:40:32.098Z,57.20
2022-12-19T21:42:59.049Z,57.20
2022-12-19T21:45:26.028Z,57.30
2022-12-19T21:47:53.119Z,57.20
2022-12-19T21:50:20.121Z,57.20
2022-12-19T21:52:50.172Z,57.20
2022-12-19T21:55:21.269Z,57.30
2022-12-19T21:57:48.482Z,57.30
2022-12-19T22:00:15.665Z,57.40
2022-12-19T22:03:01.585Z,57.40
2022-12-19T22:05:30.023Z,57.30
2022-12-19T22:07:57.123Z,57.30
2022-12-19T22:10:23.914Z,57.40
2022-12-19T22:12:50.802Z,57.40
2022-12-19T22:15:17.722Z,57.40
2022-12-19T22:17:44.683Z,57.50
2022-12-19T22:20:11.658Z,57.40
2022-12-19T22:22:38.756Z,57.40
2022-12-19T22:25:06.110Z,57.40
2022-12-19T22:27:32.905Z,57.40
2022-12-19T22:30:03.561Z,57.40
2022-12-19T22:32:35.446Z,57.40
2022-12-19T22:35:02.717Z,57.40
2022-12-19T22:37:29.800Z,57.50
2022-12-19T22:40:00.054Z,57.60
2022-12-19T22:42:28.117Z,57.50
2022-12-19T22:44:54.969Z,57.60
2022-12-19T22:47:21.768Z,57.60
2022-12-19T22:49:52.571Z,57.60
2022-12-19T22:52:19.837Z,57.70
2022-12-19T22:54:46.774Z,57.60
2022-12-19T22:57:13.889Z,58.00
2022-12-19T22:59:42.368Z,57.60
2022-12-19T23:02:09.559Z,57.70
2022-12-19T23:04:36.996Z,57.60
2022-12-19T23:07:04.257Z,57.70
2022-12-19T23:09:31.190Z,57.70
2022-12-19T23:11:58.167Z,58.00
2022-12-19T23:14:25.068Z,57.60
2022-12-19T23:16:52.252Z,57.80
2022-12-19T23:19:19.257Z,57.70
2022-12-19T23:21:46.537Z,57.80
2022-12-19T23:24:13.887Z,57.70
2022-12-19T23:26:41.773Z,57.70
2022-12-19T23:29:11.590Z,57.70
2022-12-19T23:31:43.970Z,57.70
2022-12-19T23:34:11.332Z,57.70
2022-12-19T23:37:09.682Z,57.70
2022-12-19T23:39:26.215Z,57.80
2022-12-19T23:41:53.319Z,57.90
2022-12-19T23:44:20.355Z,58.00
2022-12-19T23:46:47.292Z,58.00
2022-12-19T23:49:14.637Z,58.10
2022-12-19T23:51:41.619Z,58.10
2022-12-19T23:54:11.627Z,58.10
2022-12-19T23:56:38.684Z,58.10
2022-12-19T23:59:05.722Z,58.10
